Ferry Tsurugi — JI3553 — position and weather

sailwx.info

Track history (hours):
 
Tides and Currents Weather Stations Pressure Air Temp Water Temp Dewpoint Dewpoint Depression Visibility Wind Speed Wind Dir Waves Ship Positions

Ferry Tsurugi

Last reported at 2018-Jun-24 20:31 UTC. Time now 2018-Jun-24 20:35 UTC.
Position N 34°13' E 135°09'.

Length 108 m; draft 4 m.

Type: Passenger vessel. MMSI: 431500658.

Date/timePositionNaut miles runAvg speedWind from/ knotsBaromVisibWave heightAir tempDewpointWater temp
2018-Jun-24 20:31N 34°13' E 135°09'0 0.7
2018-Jun-24 20:01N 34°13' E 135°08'713.8
2018-Jun-24 19:30N 34°10' E 135°00'815.0
2018-Jun-24 19:00N 34°08' E 134°52'815.2
2018-Jun-24 18:27N 34°05' E 134°42'3 0.6
2018-Jun-24 14:09N 34°06' E 134°45'314.1
2018-Jun-24 13:58N 34°07' E 134°48'614.1
2018-Jun-24 13:30N 34°09' E 134°56'714.1
2018-Jun-24 13:00N 34°12' E 135°03'4 8.8
2018-Jun-24 12:30N 34°13' E 135°09'0 0.0
2018-Jun-24 12:00N 34°13' E 135°09'612.7
2018-Jun-24 11:31N 34°12' E 135°01'815.2
2018-Jun-24 11:00N 34°09' E 134°53'6 2.5
2018-Jun-24 08:44N 34°07' E 134°46'415.2
2018-Jun-24 08:30N 34°08' E 134°50'815.5
2018-Jun-24 08:00N 34°10' E 134°59'815.1
2018-Jun-24 07:30N 34°13' E 135°08'1 1.8
2018-Jun-24 07:00N 34°13' E 135°09'1 1.1
2018-Jun-24 06:30N 34°13' E 135°08'714.2
2018-Jun-24 06:00N 34°11' E 134°60'814.8
2018-Jun-24 05:29N 34°07' E 134°51'6 2.3
2018-Jun-24 03:04N 34°05' E 134°45'115.1
2018-Jun-24 02:59N 34°05' E 134°46'714.9
2018-Jun-24 02:30N 34°08' E 134°54'714.8
2018-Jun-24 02:01N 34°12' E 135°02'611.1
2018-Jun-24 01:30N 34°13' E 135°09'0 0.7
2018-Jun-24 01:00N 34°13' E 135°08'715.0
2018-Jun-24 00:31N 34°09' E 135°00'815.6
2018-Jun-24 00:00N 34°07' E 134°51'815.5
2018-Jun-23 23:29N 34°04' E 134°42'0 0.2
2018-Jun-23 22:04N 34°04' E 134°42'216.3
2018-Jun-23 21:54N 34°05' E 134°45'716.3
2018-Jun-23 21:30N 34°08' E 134°52'816.5
2018-Jun-23 21:00N 34°11' E 135°02'612.4
2018-Jun-23 20:30N 34°13' E 135°09'1 1.0
2018-Jun-23 20:01N 34°13' E 135°08'714.7
2018-Jun-23 19:30N 34°11' E 134°59'815.4
2018-Jun-23 19:00N 34°07' E 134°51'7 1.5
2018-Jun-23 14:18N 34°05' E 134°43'514.8
2018-Jun-23 13:59N 34°07' E 134°48'714.5
2018-Jun-23 13:31N 34°10' E 134°56'714.0
2018-Jun-23 13:01N 34°11' E 135°04'4 8.3
2018-Jun-23 12:29N 34°13' E 135°09'0 0.1
2018-Jun-23 12:00N 34°13' E 135°09'612.2
2018-Jun-23 11:30N 34°11' E 135°02'815.7
2018-Jun-23 11:00N 34°08' E 134°53'11 5.4
2018-Jun-23 09:02N 34°04' E 134°41'214.3
2018-Jun-23 08:53N 34°05' E 134°43'615.2
2018-Jun-23 08:31N 34°08' E 134°49'816.2
2018-Jun-23 08:00N 34°10' E 134°58'815.8
2018-Jun-23 07:31N 34°13' E 135°07'1 1.9
2018-Jun-23 07:00N 34°13' E 135°09'0 0.9
2018-Jun-23 06:30N 34°13' E 135°08'714.7
2018-Jun-23 06:00N 34°11' E 134°60'814.8
2018-Jun-23 05:30N 34°08' E 134°51'5 1.8
2018-Jun-23 02:59N 34°07' E 134°46'714.9
2018-Jun-23 02:30N 34°10' E 134°54'714.3
2018-Jun-23 02:00N 34°11' E 135°02'611.2
2018-Jun-23 01:30N 34°13' E 135°09'1 1.8
2018-Jun-23 01:00N 34°13' E 135°08'715.0
2018-Jun-23 00:31N 34°09' E 134°60'815.2
2018-Jun-23 00:00N 34°07' E 134°51'8 4.2
2018-Jun-22 22:07N 34°05' E 134°42'415.7
2018-Jun-22 21:53N 34°06' E 134°46'616.2
2018-Jun-22 21:31N 34°09' E 134°52'815.7
2018-Jun-22 21:00N 34°11' E 135°01'612.1
2018-Jun-22 20:30N 34°13' E 135°09'0 0.8
2018-Jun-22 20:01N 34°13' E 135°08'714.0
2018-Jun-22 19:30N 34°11' E 135°00'814.8
2018-Jun-22 18:59N 34°08' E 134°51'5 1.0
2018-Jun-22 14:09N 34°06' E 134°46'214.4
2018-Jun-22 14:00N 34°07' E 134°48'714.2
2018-Jun-22 13:30N 34°10' E 134°56'713.9
2018-Jun-22 13:00N 34°12' E 135°04'4 8.4
2018-Jun-22 12:30N 34°13' E 135°09'0 0.0
2018-Jun-22 12:01N 34°13' E 135°09'713.2
2018-Jun-22 11:30N 34°12' E 135°01'916.1
2018-Jun-22 10:59N 34°08' E 134°51'5 2.2
2018-Jun-22 08:47N 34°06' E 134°46'515.3
2018-Jun-22 08:26N 34°08' E 134°52'615.0
2018-Jun-22 08:01N 34°10' E 134°59'714.9
2018-Jun-22 07:30N 34°13' E 135°08'1 1.8
2018-Jun-22 07:00N 34°13' E 135°09'0 0.8
2018-Jun-22 06:30N 34°13' E 135°08'714.4
2018-Jun-22 06:00N 34°11' E 134°60'815.5
2018-Jun-22 05:30N 34°08' E 134°51'5 2.0
2018-Jun-22 03:02N 34°06' E 134°46'114.4
2018-Jun-22 02:58N 34°06' E 134°47'714.5
2018-Jun-22 02:30N 34°09' E 134°54'714.7
2018-Jun-22 02:01N 34°12' E 135°02'510.7
2018-Jun-22 01:30N 34°13' E 135°09'0 0.8
2018-Jun-22 01:00N 34°13' E 135°08'714.8
2018-Jun-22 00:30N 34°11' E 134°60'815.7
2018-Jun-22 00:00N 34°07' E 134°51'5 2.4
2018-Jun-21 21:53N 34°05' E 134°45'616.4
2018-Jun-21 21:30N 34°08' E 134°52'816.6
2018-Jun-21 21:00N 34°11' E 135°01'612.5
2018-Jun-21 20:30N 34°13' E 135°09'1 1.3
2018-Jun-21 20:00N 34°13' E 135°08'714.7
2018-Jun-21 19:30N 34°10' E 134°59'815.3
2018-Jun-21 19:00N 34°07' E 134°51'5 1.0
2018-Jun-21 14:10N 34°05' E 134°45'214.1
2018-Jun-21 14:00N 34°06' E 134°48'714.3
2018-Jun-21 13:31N 34°09' E 134°56'713.8
2018-Jun-21 13:00N 34°12' E 135°03'4 8.9
2018-Jun-21 12:30N 34°13' E 135°09'0 0.0
2018-Jun-21 12:00N 34°13' E 135°09'713.5
2018-Jun-21 11:31N 34°11' E 135°01'815.9
2018-Jun-21 11:00N 34°08' E 134°52'5 2.1
2018-Jun-21 08:41N 34°07' E 134°46'316.1
2018-Jun-21 08:30N 34°08' E 134°49'816.5
2018-Jun-21 08:01N 34°11' E 134°58'815.7
2018-Jun-21 07:31N 34°13' E 135°07'1 1.9
2018-Jun-21 07:00N 34°13' E 135°09'1 1.2
2018-Jun-21 06:31N 34°13' E 135°08'713.8
2018-Jun-21 06:00N 34°11' E 134°60'814.7
2018-Jun-21 05:29N 34°08' E 134°51'5 2.0
2018-Jun-21 03:00N 34°06' E 134°46'714.8
2018-Jun-21 02:31N 34°09' E 134°54'714.5
2018-Jun-21 02:01N 34°11' E 135°02'611.2
2018-Jun-21 01:30N 34°13' E 135°09'1 1.4
2018-Jun-21 01:00N 34°13' E 135°08'714.1
2018-Jun-21 00:30N 34°10' E 134°60'815.6
2018-Jun-20 23:58N 34°06' E 134°51'5 2.2
2018-Jun-20 21:55N 34°06' E 134°45'716.3
2018-Jun-20 21:30N 34°08' E 134°53'816.1
2018-Jun-20 21:01N 34°11' E 135°02'611.8
2018-Jun-20 20:30N 34°13' E 135°09'1 1.6
2018-Jun-20 20:00N 34°13' E 135°08'713.7
2018-Jun-20 19:30N 34°10' E 135°00'815.2
2018-Jun-20 18:57N 34°07' E 134°51'9 1.9
2018-Jun-20 14:24N 34°04' E 134°41'614.8
2018-Jun-20 14:01N 34°07' E 134°47'714.8
2018-Jun-20 13:30N 34°10' E 134°55'714.5
2018-Jun-20 13:01N 34°12' E 135°03'4 8.5
2018-Jun-20 12:30N 34°13' E 135°09'0 0.3
2018-Jun-20 12:00N 34°13' E 135°08'714.1
2018-Jun-20 11:30N 34°11' E 135°00'815.2
2018-Jun-20 11:00N 34°07' E 134°52'7 3.3
2018-Jun-20 08:52N 34°04' E 134°45'514.8
2018-Jun-20 08:30N 34°06' E 134°51'816.1
2018-Jun-20 08:00N 34°10' E 134°59'815.5
2018-Jun-20 07:30N 34°13' E 135°08'1 1.7
2018-Jun-20 07:01N 34°13' E 135°09'0 0.9
2018-Jun-20 06:31N 34°13' E 135°08'714.2
2018-Jun-20 06:00N 34°10' E 135°00'815.1
2018-Jun-20 05:30N 34°06' E 134°52'6 2.4
2018-Jun-20 03:05N 34°06' E 134°46'114.1
2018-Jun-20 03:00N 34°06' E 134°47'714.2
2018-Jun-20 02:31N 34°08' E 134°55'713.9
2018-Jun-20 02:01N 34°11' E 135°02'510.7
2018-Jun-20 01:30N 34°13' E 135°09'0 0.3
2018-Jun-20 01:00N 34°13' E 135°08'815.1
2018-Jun-20 00:30N 34°08' E 135°01'916.6
2018-Jun-20 00:00N 34°05' E 134°52'9 4.8
2018-Jun-19 22:10N 34°04' E 134°41'316.8
2018-Jun-19 21:59N 34°04' E 134°45'715.5
2018-Jun-19 21:31N 34°08' E 134°53'815.8
2018-Jun-19 21:01N 34°11' E 135°01'612.3
2018-Jun-19 20:30N 34°13' E 135°09'0 0.3
2018-Jun-19 20:00N 34°13' E 135°08'815.1
2018-Jun-19 19:30N 34°12' E 134°59'815.8
2018-Jun-19 19:00N 34°08' E 134°51'9 2.1
2018-Jun-19 14:27N 34°04' E 134°41'613.8
2018-Jun-19 14:00N 34°07' E 134°48'714.3
2018-Jun-19 13:30N 34°10' E 134°55'714.2
2018-Jun-19 13:00N 34°12' E 135°03'4 8.7
2018-Jun-19 12:30N 34°13' E 135°09'0 0.1
2018-Jun-19 12:00N 34°13' E 135°09'714.4
2018-Jun-19 11:30N 34°11' E 135°00'815.5
2018-Jun-19 10:59N 34°08' E 134°51'5 2.0
2018-Jun-19 08:42N 34°06' E 134°46'316.2
2018-Jun-19 08:30N 34°08' E 134°49'816.1
2018-Jun-19 08:00N 34°10' E 134°59'815.7
2018-Jun-19 07:30N 34°13' E 135°08'1 1.8
2018-Jun-19 07:00N 34°13' E 135°09'0 0.2
2018-Jun-19 06:30N 34°13' E 135°08'714.3
2018-Jun-19 06:00N 34°11' E 135°00'815.3
2018-Jun-19 05:30N 34°08' E 134°51'5 2.1
2018-Jun-19 03:03N 34°06' E 134°46'114.2
2018-Jun-19 02:59N 34°07' E 134°47'714.7
2018-Jun-19 02:30N 34°10' E 134°54'713.6
2018-Jun-19 02:00N 34°12' E 135°02'511.0
2018-Jun-19 01:31N 34°13' E 135°09'0 0.4
2018-Jun-19 01:01N 34°13' E 135°08'815.4
2018-Jun-19 00:30N 34°10' E 134°60'815.6
2018-Jun-19 00:00N 34°07' E 134°51'5 2.2
2018-Jun-18 21:53N 34°06' E 134°46'616.0
2018-Jun-18 21:30N 34°08' E 134°52'816.3
2018-Jun-18 21:00N 34°11' E 135°01'612.5
2018-Jun-18 20:30N 34°13' E 135°09'0 0.7
2018-Jun-18 20:00N 34°13' E 135°08'714.2
2018-Jun-18 19:31N 34°10' E 135°00'814.9
2018-Jun-18 19:00N 34°07' E 134°52'7 1.4
2018-Jun-18 14:10N 34°07' E 134°43'214.4
2018-Jun-18 14:00N 34°07' E 134°46'714.9
2018-Jun-18 13:30N 34°10' E 134°55'714.7
2018-Jun-18 13:00N 34°12' E 135°03'4 8.8
2018-Jun-18 12:30N 34°13' E 135°09'0 0.1
2018-Jun-18 12:01N 34°13' E 135°09'714.5
2018-Jun-18 11:30N 34°11' E 135°00'714.7
2018-Jun-18 11:01N 34°08' E 134°52'5 2.3
2018-Jun-18 08:43N 34°06' E 134°46'315.2
2018-Jun-18 08:30N 34°07' E 134°49'816.6
2018-Jun-18 08:00N 34°10' E 134°59'815.7
2018-Jun-18 07:31N 34°13' E 135°07'1 1.9
2018-Jun-18 07:00N 34°13' E 135°09'1 1.4
2018-Jun-18 06:30N 34°13' E 135°08'815.4
2018-Jun-18 06:01N 34°10' E 134°59'815.5
2018-Jun-18 05:30N 34°07' E 134°50'4 1.8
2018-Jun-18 03:08N 34°06' E 134°45'317.4
2018-Jun-18 02:59N 34°07' E 134°49'817.3
2018-Jun-18 02:30N 34°10' E 134°58'816.6
2018-Jun-18 02:00N 34°13' E 135°07'1 2.7
2018-Jun-18 01:30N 34°13' E 135°09'1 1.0
2018-Jun-18 01:01N 34°13' E 135°08'714.8
2018-Jun-18 00:30N 34°10' E 134°60'815.3
2018-Jun-18 00:00N 34°07' E 134°51'5 2.4
2018-Jun-17 21:52N 34°05' E 134°45'616.7
2018-Jun-17 21:30N 34°08' E 134°52'917.2
2018-Jun-17 21:00N 34°11' E 135°01'612.6
2018-Jun-17 20:30N 34°13' E 135°09'1 1.2
2018-Jun-17 20:00N 34°13' E 135°08'714.1
2018-Jun-17 19:30N 34°10' E 135°00'714.8
2018-Jun-17 19:00N 34°07' E 134°52'5 1.0
2018-Jun-17 14:04N 34°07' E 134°46'214.2
2018-Jun-17 13:56N 34°08' E 134°48'614.5
2018-Jun-17 13:30N 34°10' E 134°55'714.4
2018-Jun-17 13:00N 34°12' E 135°03'4 8.6
2018-Jun-17 12:30N 34°13' E 135°09'0 0.0
2018-Jun-17 12:00N 34°13' E 135°09'713.3
2018-Jun-17 11:30N 34°11' E 135°01'815.0
2018-Jun-17 11:00N 34°08' E 134°52'6 2.8
2018-Jun-17 08:45N 34°06' E 134°45'415.7
2018-Jun-17 08:30N 34°07' E 134°50'816.4
2018-Jun-17 08:00N 34°10' E 134°59'815.5
2018-Jun-17 07:30N 34°13' E 135°08'1 1.8
2018-Jun-17 07:01N 34°13' E 135°09'0 0.7
2018-Jun-17 06:31N 34°13' E 135°08'714.7
2018-Jun-17 06:01N 34°11' E 134°60'714.5
2018-Jun-17 05:31N 34°08' E 134°52'5 1.9
2018-Jun-17 02:58N 34°07' E 134°46'715.5
2018-Jun-17 02:30N 34°09' E 134°54'714.7
2018-Jun-17 02:00N 34°11' E 135°03'510.7
2018-Jun-17 01:30N 34°13' E 135°09'1 1.0
2018-Jun-17 01:01N 34°13' E 135°08'815.7
2018-Jun-17 00:31N 34°10' E 134°59'815.5
2018-Jun-17 00:01N 34°07' E 134°50'4 2.0
2018-Jun-16 21:52N 34°06' E 134°46'616.1
2018-Jun-16 21:30N 34°08' E 134°52'816.9
2018-Jun-16 21:01N 34°12' E 135°01'612.5
2018-Jun-16 20:31N 34°13' E 135°09'1 1.1
2018-Jun-16 20:00N 34°13' E 135°08'714.2
2018-Jun-16 19:30N 34°10' E 134°60'714.9
2018-Jun-16 19:00N 34°07' E 134°52'5 1.0
2018-Jun-16 14:03N 34°07' E 134°46'115.0
2018-Jun-16 13:59N 34°07' E 134°47'714.9
2018-Jun-16 13:30N 34°10' E 134°55'714.5
2018-Jun-16 13:00N 34°12' E 135°03'5 9.0
2018-Jun-16 12:30N 34°13' E 135°09'0 0.0
2018-Jun-16 12:00N 34°13' E 135°09'612.9
2018-Jun-16 11:30N 34°11' E 135°01'815.4
2018-Jun-16 11:01N 34°08' E 134°52'6 2.6
2018-Jun-16 08:44N 34°06' E 134°46'416.5
2018-Jun-16 08:30N 34°08' E 134°50'917.2
2018-Jun-16 08:00N 34°11' E 134°59'814.9
2018-Jun-16 07:30N 34°13' E 135°08'0 0.5
2018-Jun-16 06:59N 34°13' E 135°09'1 1.2
2018-Jun-16 06:30N 34°13' E 135°08'714.7
2018-Jun-16 06:00N 34°10' E 134°60'814.8
2018-Jun-16 05:29N 34°07' E 134°51'5 1.9
2018-Jun-16 02:59N 34°06' E 134°45'715.4
2018-Jun-16 02:30N 34°08' E 134°54'815.1
2018-Jun-16 02:00N 34°11' E 135°02'611.2
2018-Jun-16 01:30N 34°13' E 135°09'0 0.8
2018-Jun-16 01:01N 34°13' E 135°08'815.2
2018-Jun-16 00:30N 34°10' E 134°59'815.4
2018-Jun-16 00:00N 34°08' E 134°51'8 3.9
2018-Jun-15 22:05N 34°05' E 134°42'316.4
2018-Jun-15 21:55N 34°05' E 134°45'716.5
2018-Jun-15 21:30N 34°08' E 134°53'816.9
2018-Jun-15 21:00N 34°11' E 135°02'510.9
2018-Jun-15 20:30N 34°13' E 135°09'1 1.2
2018-Jun-15 20:00N 34°13' E 135°08'714.6
2018-Jun-15 19:31N 34°09' E 135°00'714.8
2018-Jun-15 19:00N 34°07' E 134°52'9 2.0
2018-Jun-15 14:22N 34°05' E 134°41'614.4
2018-Jun-15 13:59N 34°07' E 134°47'715.0
2018-Jun-15 13:30N 34°09' E 134°55'714.8
2018-Jun-15 13:00N 34°12' E 135°03'4 8.9
2018-Jun-15 12:30N 34°13' E 135°09'0 0.1
2018-Jun-15 12:00N 34°13' E 135°09'714.1
2018-Jun-15 11:30N 34°10' E 135°01'814.9
2018-Jun-15 11:00N 34°08' E 134°52'6 2.7
2018-Jun-15 08:46N 34°05' E 134°45'415.5
2018-Jun-15 08:30N 34°07' E 134°50'816.4
2018-Jun-15 08:01N 34°10' E 134°59'815.6
2018-Jun-15 07:31N 34°13' E 135°08'1 1.6
2018-Jun-15 07:00N 34°13' E 135°09'1 1.2
2018-Jun-15 06:30N 34°13' E 135°08'714.6
2018-Jun-15 06:00N 34°10' E 134°60'714.6
2018-Jun-15 05:30N 34°07' E 134°52'6 2.3
2018-Jun-15 03:04N 34°05' E 134°45'114.6
2018-Jun-15 02:59N 34°06' E 134°47'715.2
2018-Jun-15 02:30N 34°08' E 134°55'714.9
2018-Jun-15 02:00N 34°11' E 135°03'5 8.4
2018-Jun-15 01:25N 34°13' E 135°09'1 1.7
2018-Jun-15 01:00N 34°13' E 135°08'815.3
2018-Jun-15 00:30N 34°10' E 134°59'815.9
2018-Jun-15 00:00N 34°07' E 134°51'6 3.2
2018-Jun-14 22:02N 34°05' E 134°43'216.4
2018-Jun-14 21:53N 34°06' E 134°46'616.5
2018-Jun-14 21:30N 34°10' E 134°52'816.1
2018-Jun-14 21:00N 34°12' E 135°01'  
Track history (hours):
 
Tides and Currents Weather Stations Pressure Air Temp Water Temp Dewpoint Dewpoint Depression Visibility Wind Speed Wind Dir Waves Ship Positions

Ferry Tsurugi

Last reported at 2018-Jun-24 20:31 UTC. Time now 2018-Jun-24 20:35 UTC.
Position N 34°13' E 135°09'.

Length 108 m; draft 4 m.

Type: Passenger vessel. MMSI: 431500658.

Date/timePositionNaut miles runAvg speedWind from/ knotsBaromVisibWave heightAir tempDewpointWater temp
2018-Jun-24 20:31N 34°13' E 135°09'0 0.7
2018-Jun-24 20:01N 34°13' E 135°08'713.8
2018-Jun-24 19:30N 34°10' E 135°00'815.0
2018-Jun-24 19:00N 34°08' E 134°52'815.2
2018-Jun-24 18:27N 34°05' E 134°42'3 0.6
2018-Jun-24 14:09N 34°06' E 134°45'314.1
2018-Jun-24 13:58N 34°07' E 134°48'614.1
2018-Jun-24 13:30N 34°09' E 134°56'714.1
2018-Jun-24 13:00N 34°12' E 135°03'4 8.8
2018-Jun-24 12:30N 34°13' E 135°09'0 0.0
2018-Jun-24 12:00N 34°13' E 135°09'612.7
2018-Jun-24 11:31N 34°12' E 135°01'815.2
2018-Jun-24 11:00N 34°09' E 134°53'6 2.5
2018-Jun-24 08:44N 34°07' E 134°46'415.2
2018-Jun-24 08:30N 34°08' E 134°50'815.5
2018-Jun-24 08:00N 34°10' E 134°59'815.1
2018-Jun-24 07:30N 34°13' E 135°08'1 1.8
2018-Jun-24 07:00N 34°13' E 135°09'1 1.1
2018-Jun-24 06:30N 34°13' E 135°08'714.2
2018-Jun-24 06:00N 34°11' E 134°60'814.8
2018-Jun-24 05:29N 34°07' E 134°51'6 2.3
2018-Jun-24 03:04N 34°05' E 134°45'115.1
2018-Jun-24 02:59N 34°05' E 134°46'714.9
2018-Jun-24 02:30N 34°08' E 134°54'714.8
2018-Jun-24 02:01N 34°12' E 135°02'611.1
2018-Jun-24 01:30N 34°13' E 135°09'0 0.7
2018-Jun-24 01:00N 34°13' E 135°08'715.0
2018-Jun-24 00:31N 34°09' E 135°00'815.6
2018-Jun-24 00:00N 34°07' E 134°51'815.5
2018-Jun-23 23:29N 34°04' E 134°42'0 0.2
2018-Jun-23 22:04N 34°04' E 134°42'216.3
2018-Jun-23 21:54N 34°05' E 134°45'716.3
2018-Jun-23 21:30N 34°08' E 134°52'816.5
2018-Jun-23 21:00N 34°11' E 135°02'612.4
2018-Jun-23 20:30N 34°13' E 135°09'1 1.0
2018-Jun-23 20:01N 34°13' E 135°08'714.7
2018-Jun-23 19:30N 34°11' E 134°59'815.4
2018-Jun-23 19:00N 34°07' E 134°51'7 1.5
2018-Jun-23 14:18N 34°05' E 134°43'514.8
2018-Jun-23 13:59N 34°07' E 134°48'714.5
2018-Jun-23 13:31N 34°10' E 134°56'714.0
2018-Jun-23 13:01N 34°11' E 135°04'4 8.3
2018-Jun-23 12:29N 34°13' E 135°09'0 0.1
2018-Jun-23 12:00N 34°13' E 135°09'612.2
2018-Jun-23 11:30N 34°11' E 135°02'815.7
2018-Jun-23 11:00N 34°08' E 134°53'11 5.4
2018-Jun-23 09:02N 34°04' E 134°41'214.3
2018-Jun-23 08:53N 34°05' E 134°43'615.2
2018-Jun-23 08:31N 34°08' E 134°49'816.2
2018-Jun-23 08:00N 34°10' E 134°58'815.8
2018-Jun-23 07:31N 34°13' E 135°07'1 1.9
2018-Jun-23 07:00N 34°13' E 135°09'0 0.9
2018-Jun-23 06:30N 34°13' E 135°08'714.7
2018-Jun-23 06:00N 34°11' E 134°60'814.8
2018-Jun-23 05:30N 34°08' E 134°51'5 1.8
2018-Jun-23 02:59N 34°07' E 134°46'714.9
2018-Jun-23 02:30N 34°10' E 134°54'714.3
2018-Jun-23 02:00N 34°11' E 135°02'611.2
2018-Jun-23 01:30N 34°13' E 135°09'1 1.8
2018-Jun-23 01:00N 34°13' E 135°08'715.0
2018-Jun-23 00:31N 34°09' E 134°60'815.2
2018-Jun-23 00:00N 34°07' E 134°51'8 4.2
2018-Jun-22 22:07N 34°05' E 134°42'415.7
2018-Jun-22 21:53N 34°06' E 134°46'616.2
2018-Jun-22 21:31N 34°09' E 134°52'815.7
2018-Jun-22 21:00N 34°11' E 135°01'612.1
2018-Jun-22 20:30N 34°13' E 135°09'0 0.8
2018-Jun-22 20:01N 34°13' E 135°08'714.0
2018-Jun-22 19:30N 34°11' E 135°00'814.8
2018-Jun-22 18:59N 34°08' E 134°51'5 1.0
2018-Jun-22 14:09N 34°06' E 134°46'214.4
2018-Jun-22 14:00N 34°07' E 134°48'714.2
2018-Jun-22 13:30N 34°10' E 134°56'713.9
2018-Jun-22 13:00N 34°12' E 135°04'4 8.4
2018-Jun-22 12:30N 34°13' E 135°09'0 0.0
2018-Jun-22 12:01N 34°13' E 135°09'713.2
2018-Jun-22 11:30N 34°12' E 135°01'916.1
2018-Jun-22 10:59N 34°08' E 134°51'5 2.2
2018-Jun-22 08:47N 34°06' E 134°46'515.3
2018-Jun-22 08:26N 34°08' E 134°52'615.0
2018-Jun-22 08:01N 34°10' E 134°59'714.9
2018-Jun-22 07:30N 34°13' E 135°08'1 1.8
2018-Jun-22 07:00N 34°13' E 135°09'0 0.8
2018-Jun-22 06:30N 34°13' E 135°08'714.4
2018-Jun-22 06:00N 34°11' E 134°60'815.5
2018-Jun-22 05:30N 34°08' E 134°51'5 2.0
2018-Jun-22 03:02N 34°06' E 134°46'114.4
2018-Jun-22 02:58N 34°06' E 134°47'714.5
2018-Jun-22 02:30N 34°09' E 134°54'714.7
2018-Jun-22 02:01N 34°12' E 135°02'510.7
2018-Jun-22 01:30N 34°13' E 135°09'0 0.8
2018-Jun-22 01:00N 34°13' E 135°08'714.8
2018-Jun-22 00:30N 34°11' E 134°60'815.7
2018-Jun-22 00:00N 34°07' E 134°51'5 2.4
2018-Jun-21 21:53N 34°05' E 134°45'616.4
2018-Jun-21 21:30N 34°08' E 134°52'816.6
2018-Jun-21 21:00N 34°11' E 135°01'612.5
2018-Jun-21 20:30N 34°13' E 135°09'1 1.3
2018-Jun-21 20:00N 34°13' E 135°08'714.7
2018-Jun-21 19:30N 34°10' E 134°59'815.3
2018-Jun-21 19:00N 34°07' E 134°51'5 1.0
2018-Jun-21 14:10N 34°05' E 134°45'214.1
2018-Jun-21 14:00N 34°06' E 134°48'714.3
2018-Jun-21 13:31N 34°09' E 134°56'713.8
2018-Jun-21 13:00N 34°12' E 135°03'4 8.9
2018-Jun-21 12:30N 34°13' E 135°09'0 0.0
2018-Jun-21 12:00N 34°13' E 135°09'713.5
2018-Jun-21 11:31N 34°11' E 135°01'815.9
2018-Jun-21 11:00N 34°08' E 134°52'5 2.1
2018-Jun-21 08:41N 34°07' E 134°46'316.1
2018-Jun-21 08:30N 34°08' E 134°49'816.5
2018-Jun-21 08:01N 34°11' E 134°58'815.7
2018-Jun-21 07:31N 34°13' E 135°07'1 1.9
2018-Jun-21 07:00N 34°13' E 135°09'1 1.2
2018-Jun-21 06:31N 34°13' E 135°08'713.8
2018-Jun-21 06:00N 34°11' E 134°60'814.7
2018-Jun-21 05:29N 34°08' E 134°51'5 2.0
2018-Jun-21 03:00N 34°06' E 134°46'714.8
2018-Jun-21 02:31N 34°09' E 134°54'714.5
2018-Jun-21 02:01N 34°11' E 135°02'611.2
2018-Jun-21 01:30N 34°13' E 135°09'1 1.4
2018-Jun-21 01:00N 34°13' E 135°08'714.1
2018-Jun-21 00:30N 34°10' E 134°60'815.6
2018-Jun-20 23:58N 34°06' E 134°51'5 2.2
2018-Jun-20 21:55N 34°06' E 134°45'716.3
2018-Jun-20 21:30N 34°08' E 134°53'816.1
2018-Jun-20 21:01N 34°11' E 135°02'611.8
2018-Jun-20 20:30N 34°13' E 135°09'1 1.6
2018-Jun-20 20:00N 34°13' E 135°08'713.7
2018-Jun-20 19:30N 34°10' E 135°00'815.2
2018-Jun-20 18:57N 34°07' E 134°51'9 1.9
2018-Jun-20 14:24N 34°04' E 134°41'614.8
2018-Jun-20 14:01N 34°07' E 134°47'714.8
2018-Jun-20 13:30N 34°10' E 134°55'714.5
2018-Jun-20 13:01N 34°12' E 135°03'4 8.5
2018-Jun-20 12:30N 34°13' E 135°09'0 0.3
2018-Jun-20 12:00N 34°13' E 135°08'714.1
2018-Jun-20 11:30N 34°11' E 135°00'815.2
2018-Jun-20 11:00N 34°07' E 134°52'7 3.3
2018-Jun-20 08:52N 34°04' E 134°45'514.8
2018-Jun-20 08:30N 34°06' E 134°51'816.1
2018-Jun-20 08:00N 34°10' E 134°59'815.5
2018-Jun-20 07:30N 34°13' E 135°08'1 1.7
2018-Jun-20 07:01N 34°13' E 135°09'0 0.9
2018-Jun-20 06:31N 34°13' E 135°08'714.2
2018-Jun-20 06:00N 34°10' E 135°00'815.1
2018-Jun-20 05:30N 34°06' E 134°52'6 2.4
2018-Jun-20 03:05N 34°06' E 134°46'114.1
2018-Jun-20 03:00N 34°06' E 134°47'714.2
2018-Jun-20 02:31N 34°08' E 134°55'713.9
2018-Jun-20 02:01N 34°11' E 135°02'510.7
2018-Jun-20 01:30N 34°13' E 135°09'0 0.3
2018-Jun-20 01:00N 34°13' E 135°08'815.1
2018-Jun-20 00:30N 34°08' E 135°01'916.6
2018-Jun-20 00:00N 34°05' E 134°52'9 4.8
2018-Jun-19 22:10N 34°04' E 134°41'316.8
2018-Jun-19 21:59N 34°04' E 134°45'715.5
2018-Jun-19 21:31N 34°08' E 134°53'815.8
2018-Jun-19 21:01N 34°11' E 135°01'612.3
2018-Jun-19 20:30N 34°13' E 135°09'0 0.3
2018-Jun-19 20:00N 34°13' E 135°08'815.1
2018-Jun-19 19:30N 34°12' E 134°59'815.8
2018-Jun-19 19:00N 34°08' E 134°51'9 2.1
2018-Jun-19 14:27N 34°04' E 134°41'613.8
2018-Jun-19 14:00N 34°07' E 134°48'714.3
2018-Jun-19 13:30N 34°10' E 134°55'714.2
2018-Jun-19 13:00N 34°12' E 135°03'4 8.7
2018-Jun-19 12:30N 34°13' E 135°09'0 0.1
2018-Jun-19 12:00N 34°13' E 135°09'714.4
2018-Jun-19 11:30N 34°11' E 135°00'815.5
2018-Jun-19 10:59N 34°08' E 134°51'5 2.0
2018-Jun-19 08:42N 34°06' E 134°46'316.2
2018-Jun-19 08:30N 34°08' E 134°49'816.1
2018-Jun-19 08:00N 34°10' E 134°59'815.7
2018-Jun-19 07:30N 34°13' E 135°08'1 1.8
2018-Jun-19 07:00N 34°13' E 135°09'0 0.2
2018-Jun-19 06:30N 34°13' E 135°08'714.3
2018-Jun-19 06:00N 34°11' E 135°00'815.3
2018-Jun-19 05:30N 34°08' E 134°51'5 2.1
2018-Jun-19 03:03N 34°06' E 134°46'114.2
2018-Jun-19 02:59N 34°07' E 134°47'714.7
2018-Jun-19 02:30N 34°10' E 134°54'713.6
2018-Jun-19 02:00N 34°12' E 135°02'511.0
2018-Jun-19 01:31N 34°13' E 135°09'0 0.4
2018-Jun-19 01:01N 34°13' E 135°08'815.4
2018-Jun-19 00:30N 34°10' E 134°60'815.6
2018-Jun-19 00:00N 34°07' E 134°51'5 2.2
2018-Jun-18 21:53N 34°06' E 134°46'616.0
2018-Jun-18 21:30N 34°08' E 134°52'816.3
2018-Jun-18 21:00N 34°11' E 135°01'612.5
2018-Jun-18 20:30N 34°13' E 135°09'0 0.7
2018-Jun-18 20:00N 34°13' E 135°08'714.2
2018-Jun-18 19:31N 34°10' E 135°00'814.9
2018-Jun-18 19:00N 34°07' E 134°52'7 1.4
2018-Jun-18 14:10N 34°07' E 134°43'214.4
2018-Jun-18 14:00N 34°07' E 134°46'714.9
2018-Jun-18 13:30N 34°10' E 134°55'714.7
2018-Jun-18 13:00N 34°12' E 135°03'4 8.8
2018-Jun-18 12:30N 34°13' E 135°09'0 0.1
2018-Jun-18 12:01N 34°13' E 135°09'714.5
2018-Jun-18 11:30N 34°11' E 135°00'714.7
2018-Jun-18 11:01N 34°08' E 134°52'5 2.3
2018-Jun-18 08:43N 34°06' E 134°46'315.2
2018-Jun-18 08:30N 34°07' E 134°49'816.6
2018-Jun-18 08:00N 34°10' E 134°59'815.7
2018-Jun-18 07:31N 34°13' E 135°07'1 1.9
2018-Jun-18 07:00N 34°13' E 135°09'1 1.4
2018-Jun-18 06:30N 34°13' E 135°08'815.4
2018-Jun-18 06:01N 34°10' E 134°59'815.5
2018-Jun-18 05:30N 34°07' E 134°50'4 1.8
2018-Jun-18 03:08N 34°06' E 134°45'317.4
2018-Jun-18 02:59N 34°07' E 134°49'817.3
2018-Jun-18 02:30N 34°10' E 134°58'816.6
2018-Jun-18 02:00N 34°13' E 135°07'1 2.7
2018-Jun-18 01:30N 34°13' E 135°09'1 1.0
2018-Jun-18 01:01N 34°13' E 135°08'714.8
2018-Jun-18 00:30N 34°10' E 134°60'815.3
2018-Jun-18 00:00N 34°07' E 134°51'5 2.4
2018-Jun-17 21:52N 34°05' E 134°45'616.7
2018-Jun-17 21:30N 34°08' E 134°52'917.2
2018-Jun-17 21:00N 34°11' E 135°01'612.6
2018-Jun-17 20:30N 34°13' E 135°09'1 1.2
2018-Jun-17 20:00N 34°13' E 135°08'714.1
2018-Jun-17 19:30N 34°10' E 135°00'714.8
2018-Jun-17 19:00N 34°07' E 134°52'5 1.0
2018-Jun-17 14:04N 34°07' E 134°46'214.2
2018-Jun-17 13:56N 34°08' E 134°48'614.5
2018-Jun-17 13:30N 34°10' E 134°55'714.4
2018-Jun-17 13:00N 34°12' E 135°03'4 8.6
2018-Jun-17 12:30N 34°13' E 135°09'0 0.0
2018-Jun-17 12:00N 34°13' E 135°09'713.3
2018-Jun-17 11:30N 34°11' E 135°01'815.0
2018-Jun-17 11:00N 34°08' E 134°52'6 2.8
2018-Jun-17 08:45N 34°06' E 134°45'415.7
2018-Jun-17 08:30N 34°07' E 134°50'816.4
2018-Jun-17 08:00N 34°10' E 134°59'815.5
2018-Jun-17 07:30N 34°13' E 135°08'1 1.8
2018-Jun-17 07:01N 34°13' E 135°09'0 0.7
2018-Jun-17 06:31N 34°13' E 135°08'714.7
2018-Jun-17 06:01N 34°11' E 134°60'714.5
2018-Jun-17 05:31N 34°08' E 134°52'5 1.9
2018-Jun-17 02:58N 34°07' E 134°46'715.5
2018-Jun-17 02:30N 34°09' E 134°54'714.7
2018-Jun-17 02:00N 34°11' E 135°03'510.7
2018-Jun-17 01:30N 34°13' E 135°09'1 1.0
2018-Jun-17 01:01N 34°13' E 135°08'815.7
2018-Jun-17 00:31N 34°10' E 134°59'815.5
2018-Jun-17 00:01N 34°07' E 134°50'4 2.0
2018-Jun-16 21:52N 34°06' E 134°46'616.1
2018-Jun-16 21:30N 34°08' E 134°52'816.9
2018-Jun-16 21:01N 34°12' E 135°01'612.5
2018-Jun-16 20:31N 34°13' E 135°09'1 1.1
2018-Jun-16 20:00N 34°13' E 135°08'714.2
2018-Jun-16 19:30N 34°10' E 134°60'714.9
2018-Jun-16 19:00N 34°07' E 134°52'5 1.0
2018-Jun-16 14:03N 34°07' E 134°46'115.0
2018-Jun-16 13:59N 34°07' E 134°47'714.9
2018-Jun-16 13:30N 34°10' E 134°55'714.5
2018-Jun-16 13:00N 34°12' E 135°03'5 9.0
2018-Jun-16 12:30N 34°13' E 135°09'0 0.0
2018-Jun-16 12:00N 34°13' E 135°09'612.9
2018-Jun-16 11:30N 34°11' E 135°01'815.4
2018-Jun-16 11:01N 34°08' E 134°52'6 2.6
2018-Jun-16 08:44N 34°06' E 134°46'416.5
2018-Jun-16 08:30N 34°08' E 134°50'917.2
2018-Jun-16 08:00N 34°11' E 134°59'814.9
2018-Jun-16 07:30N 34°13' E 135°08'0 0.5
2018-Jun-16 06:59N 34°13' E 135°09'1 1.2
2018-Jun-16 06:30N 34°13' E 135°08'714.7
2018-Jun-16 06:00N 34°10' E 134°60'814.8
2018-Jun-16 05:29N 34°07' E 134°51'5 1.9
2018-Jun-16 02:59N 34°06' E 134°45'715.4
2018-Jun-16 02:30N 34°08' E 134°54'815.1
2018-Jun-16 02:00N 34°11' E 135°02'611.2
2018-Jun-16 01:30N 34°13' E 135°09'0 0.8
2018-Jun-16 01:01N 34°13' E 135°08'815.2
2018-Jun-16 00:30N 34°10' E 134°59'815.4
2018-Jun-16 00:00N 34°08' E 134°51'8 3.9
2018-Jun-15 22:05N 34°05' E 134°42'316.4
2018-Jun-15 21:55N 34°05' E 134°45'716.5
2018-Jun-15 21:30N 34°08' E 134°53'816.9
2018-Jun-15 21:00N 34°11' E 135°02'510.9
2018-Jun-15 20:30N 34°13' E 135°09'1 1.2
2018-Jun-15 20:00N 34°13' E 135°08'714.6
2018-Jun-15 19:31N 34°09' E 135°00'714.8
2018-Jun-15 19:00N 34°07' E 134°52'9 2.0
2018-Jun-15 14:22N 34°05' E 134°41'614.4
2018-Jun-15 13:59N 34°07' E 134°47'715.0
2018-Jun-15 13:30N 34°09' E 134°55'714.8
2018-Jun-15 13:00N 34°12' E 135°03'4 8.9
2018-Jun-15 12:30N 34°13' E 135°09'0 0.1
2018-Jun-15 12:00N 34°13' E 135°09'714.1
2018-Jun-15 11:30N 34°10' E 135°01'814.9
2018-Jun-15 11:00N 34°08' E 134°52'6 2.7
2018-Jun-15 08:46N 34°05' E 134°45'415.5
2018-Jun-15 08:30N 34°07' E 134°50'816.4
2018-Jun-15 08:01N 34°10' E 134°59'815.6
2018-Jun-15 07:31N 34°13' E 135°08'1 1.6
2018-Jun-15 07:00N 34°13' E 135°09'1 1.2
2018-Jun-15 06:30N 34°13' E 135°08'714.6
2018-Jun-15 06:00N 34°10' E 134°60'714.6
2018-Jun-15 05:30N 34°07' E 134°52'6 2.3
2018-Jun-15 03:04N 34°05' E 134°45'114.6
2018-Jun-15 02:59N 34°06' E 134°47'715.2
2018-Jun-15 02:30N 34°08' E 134°55'714.9
2018-Jun-15 02:00N 34°11' E 135°03'5 8.4
2018-Jun-15 01:25N 34°13' E 135°09'1 1.7
2018-Jun-15 01:00N 34°13' E 135°08'815.3
2018-Jun-15 00:30N 34°10' E 134°59'815.9
2018-Jun-15 00:00N 34°07' E 134°51'6 3.2
2018-Jun-14 22:02N 34°05' E 134°43'216.4
2018-Jun-14 21:53N 34°06' E 134°46'616.5
2018-Jun-14 21:30N 34°10' E 134°52'816.1
2018-Jun-14 21:00N 34°12' E 135°01'  

Dump ship's entire track history